Search for airport 
image banner adimage banner ad
image banner ad

SSJK - Júlio de Castilho Airport

Located in Júlio De Castilho, Brazil

ICAO - SSJK, IATA -

Data provided by Airmate  

General information

Coordinates: S29°9'11" W53°44'36"
Elevation is 1633 feet MSL.
Magnetic variation is -15° East
View others Airports in Rio Grande do Sul

Operational data

Open for public use
Current time UTC:
Current local time:
Weather at : SBSM - Santa Maria Airport ( 62 km )
METAR: SBSM 031700Z 26012KT 9999 BKN035 27/19 Q1006
TAF: TAF SBSM 030900Z 0312/0324 33010KT 8000 BKN007 TN13/0312Z TX18/0317Z PROB30 0312/0315 5000 RA BKN006 BECMG 0319/0321 15015KT 9999 NSW BKN010 RMK PEN
View NOTAMs / SUP AIP / TFR affecting this airport [VIEW]
Communications frequencies: [VIEW]

Runways:

RWY identifierQFULength (ft)Width (ft)SurfaceLDA (ft)
12390498UNK
30390498UNK

Airport contact information

Address: Júlio De Castilho Brazil

Satellite view of SSJK